This is the latest recevied weather packets stored in our database for station/object G0AMO. If no packets are shown the sender has not sent any weather packets the latest 10 day(s).
| Time | Temp. | Humidity | Pressure | Rain* | Wind** | Luminosity | Snow |
|---|---|---|---|---|---|---|---|
| 1778006704 | 13.33° C | 68% | 1012.5 hPa | 0 mm | - | 0 W/m² | - |
| 1778005806 | 13.89° C | 68% | 1012.2 hPa | 0 mm | - | 0 W/m² | - |
| 1778003403 | 13.89° C | 66% | 1012.9 hPa | 0 mm | - | 115 W/m² | - |
| 1778002504 | 13.89° C | 67% | 1012.2 hPa | 0 mm | - | 170 W/m² | - |
| 1778001305 | 14.44° C | 67% | 1012.2 hPa | 0 mm | - | 249 W/m² | - |
| 1777997104 | 15° C | 64% | 1012.9 hPa | 0 mm | - | 561 W/m² | - |
| 1777995904 | 15° C | 64% | 1012.9 hPa | 0 mm | - | 654 W/m² | - |
| 1777994105 | 15° C | 64% | 1012.9 hPa | 0 mm | - | 789 W/m² | - |
| 1777992004 | 15° C | 64% | 1012.9 hPa | 0 mm | - | 934 W/m² | - |
| 1777991405 | 15° C | 65% | 1012.9 hPa | 0 mm | - | 972 W/m² | - |
| 1777982105 | 15° C | 69% | 1013.6 hPa | 0 mm | - | 1198 W/m² | - |
| 1777981504 | 15° C | 68% | 1013.5 hPa | 0 mm | - | 1186 W/m² | - |
| 1777980604 | 15° C | 68% | 1013.5 hPa | 0 mm | - | 1161 W/m² | - |
| 1777979104 | 14.44° C | 70% | 1013.9 hPa | 0 mm | - | 1105 W/m² | - |
| 1777977905 | 14.44° C | 69% | 1014.2 hPa | 0 mm | - | 1047 W/m² | - |
| 1777977005 | 13.89° C | 71% | 1013.9 hPa | 0 mm | - | 997 W/m² | - |
| 1777976704 | 13.33° C | 72% | 1013.9 hPa | 0 mm | - | 979 W/m² | - |
| 1777976404 | 14.44° C | 71% | 1014.2 hPa | 0 mm | - | 961 W/m² | - |
| 1777975206 | 13.89° C | 72% | 1014.2 hPa | 0 mm | - | 883 W/m² | - |
| 1777971605 | 12.22° C | 79% | 1014.6 hPa | 0 mm | - | 617 W/m² | - |
| 1777969504 | 11.11° C | 87% | 1014.9 hPa | 0 mm | - | 455 W/m² | - |
| 1777967704 | 10.56° C | 88% | 1014.9 hPa | 0 mm | - | 321 W/m² | - |
| 1777962304 | 8.89° C | 95% | 1014.9 hPa | 0 mm | - | 107 W/m² | - |
| 1777961105 | 8.33° C | 95% | 1013.9 hPa | 0 mm | - | 59 W/m² | - |
| 1777960504 | 8.33° C | 96% | 1013.5 hPa | 0 mm | - | 0 W/m² | - |
* Rain latest hour (hover to see other rain measurements)
** Current wind speed in m/s (hover to see current wind gust speed)